Time;durP1;ratioP1;P1;durP2;ratioP2;P2;SDS_P1;SDS_P2;PMS_P1;PMS_P2;Temp;Humidity;BMP_temperature;BMP_pressure;BME280_temperature;BME280_humidity;BME280_pressure;Samples;Min_cycle;Max_cycle;Signal;HPM_P1;HPM_P2
2022/04/09 00:00:14;;;;;;;2.80;2.70;;;;;;;3.07;92.25;99876.41;6118375;23;20030;-64
2022/04/09 00:02:41;;;;;;;2.97;2.88;;;;;;;2.93;92.88;99865.66;6097333;23;20032;-62
2022/04/09 00:05:11;;;;;;;2.90;2.80;;;;;;;2.80;92.82;99840.16;6107380;23;20037;-63
2022/04/09 00:07:37;;;;;;;4.60;4.40;;;;;;;2.71;92.70;99843.06;6110864;23;20100;-63
2022/04/09 00:10:06;;;;;;;2.80;2.70;;;;;;;2.92;93.79;99877.75;6106542;23;20021;-64
2022/04/09 00:12:33;;;;;;;4.63;4.43;;;;;;;2.90;93.66;99896.84;6113078;23;20009;-63
2022/04/09 00:15:00;;;;;;;3.45;3.33;;;;;;;2.91;94.22;99896.81;6097183;23;20518;-65
2022/04/09 00:17:26;;;;;;;4.82;4.63;;;;;;;2.87;94.51;99899.56;6114235;23;20044;-64
2022/04/09 00:19:53;;;;;;;2.90;2.80;;;;;;;2.74;94.78;99889.56;6115590;23;20025;-64
2022/04/09 00:22:19;;;;;;;3.53;3.33;;;;;;;2.84;94.26;99931.59;6109702;23;20025;-62
2022/04/09 00:24:46;;;;;;;3.00;2.90;;;;;;;2.77;95.10;99906.78;6102642;23;20080;-63
2022/04/09 00:27:13;;;;;;;2.90;2.80;;;;;;;2.68;95.51;99918.28;6108505;23;20493;-63
2022/04/09 00:29:40;;;;;;;4.05;3.85;;;;;;;2.65;96.04;99920.16;6101476;23;20017;-63
2022/04/09 00:32:06;;;;;;;2.90;2.80;;;;;;;2.70;96.35;99941.56;6124995;23;20665;-64
2022/04/09 00:34:33;;;;;;;4.63;4.43;;;;;;;2.68;97.28;99945.94;6095571;23;20069;-62
2022/04/09 00:36:59;;;;;;;3.10;3.00;;;;;;;2.43;96.42;99922.56;6125147;23;20017;-62
2022/04/09 00:39:26;;;;;;;3.35;3.25;;;;;;;2.41;97.51;99920.00;6082913;23;20093;-62
2022/04/09 00:41:52;;;;;;;3.15;3.05;;;;;;;1.45;97.40;99763.38;6110446;23;20018;-63
2022/04/09 00:44:20;;;;;;;3.50;3.30;;;;;;;1.66;97.44;99800.66;6113678;23;20009;-62
2022/04/09 00:46:47;;;;;;;2.95;2.85;;;;;;;2.37;97.92;99952.91;6112891;23;20025;-64
2022/04/09 00:49:15;;;;;;;2.90;2.80;;;;;;;2.59;98.39;99968.66;6117708;23;20099;-63
2022/04/09 00:51:44;;;;;;;3.35;3.25;;;;;;;2.57;98.78;99979.97;6094594;23;20028;-63
2022/04/09 00:54:12;;;;;;;2.80;2.70;;;;;;;2.01;99.49;99908.28;6113466;23;20624;-64
2022/04/09 00:56:41;;;;;;;4.10;3.90;;;;;;;2.51;99.84;99986.16;6101705;23;20122;-64
2022/04/09 00:59:11;;;;;;;2.88;2.78;;;;;;;2.39;100.00;99964.06;6110059;23;20029;-63
2022/04/09 01:01:39;;;;;;;4.60;4.40;;;;;;;2.21;100.00;99956.03;6121590;23;20093;-63
2022/04/09 01:04:08;;;;;;;2.90;2.80;;;;;;;2.50;100.00;99996.56;6113175;23;20037;-64
2022/04/09 01:06:35;;;;;;;4.97;4.78;;;;;;;2.36;100.00;99982.28;6111412;23;20114;-63
2022/04/09 01:09:03;;;;;;;3.10;3.00;;;;;;;2.52;100.00;100016.34;6094471;23;20022;-63
2022/04/09 01:11:29;;;;;;;4.75;4.55;;;;;;;2.48;100.00;99995.75;6107492;23;20646;-64
2022/04/09 01:13:56;;;;;;;3.00;2.90;;;;;;;2.50;100.00;100025.06;6115279;23;20101;-64
2022/04/09 01:16:24;;;;;;;3.47;3.35;;;;;;;2.54;100.00;100026.66;6100494;23;20112;-64
2022/04/09 01:18:50;;;;;;;3.67;3.47;;;;;;;2.49;100.00;100038.91;6106746;23;20553;-64
2022/04/09 01:21:17;;;;;;;2.80;2.70;;;;;;;2.46;100.00;100055.38;6124419;23;20018;-62
2022/04/09 01:23:43;;;;;;;2.80;2.70;;;;;;;2.35;100.00;100029.81;6124520;23;20014;-64
2022/04/09 01:26:10;;;;;;;2.88;2.78;;;;;;;2.34;100.00;100019.47;6128223;23;20452;-64
2022/04/09 01:28:37;;;;;;;4.65;4.45;;;;;;;2.31;100.00;100020.44;6108891;23;20013;-63
2022/04/09 01:31:03;;;;;;;2.72;2.63;;;;;;;2.41;100.00;100052.09;6114469;23;20034;-63
2022/04/09 01:33:30;;;;;;;4.45;4.25;;;;;;;2.38;100.00;100060.75;6106134;23;20018;-63
2022/04/09 01:35:56;;;;;;;2.80;2.70;;;;;;;2.47;100.00;100071.78;6111079;23;20092;-64
2022/04/09 01:38:23;;;;;;;3.45;3.33;;;;;;;2.11;100.00;100025.34;6113580;23;20081;-64
2022/04/09 01:40:49;;;;;;;3.13;3.03;;;;;;;2.46;100.00;100086.44;6114776;23;20064;-63
2022/04/09 01:43:16;;;;;;;2.90;2.80;;;;;;;2.25;100.00;100056.00;6117105;23;20014;-64
2022/04/09 01:45:42;;;;;;;2.90;2.80;;;;;;;1.80;100.00;99987.34;6110370;23;20017;-63
2022/04/09 01:48:09;;;;;;;2.80;2.70;;;;;;;2.38;100.00;100103.94;6123093;23;20040;-64
2022/04/09 01:50:35;;;;;;;4.45;4.25;;;;;;;2.40;100.00;100102.16;6107720;23;20025;-64
2022/04/09 01:53:02;;;;;;;3.00;2.90;;;;;;;2.45;100.00;100112.41;6118211;23;21326;-63
2022/04/09 01:55:28;;;;;;;4.80;4.60;;;;;;;1.55;100.00;99958.75;6109608;23;20097;-64
2022/04/09 01:57:55;;;;;;;2.70;2.60;;;;;;;2.47;100.00;100113.22;6115414;23;20021;-63
2022/04/09 02:00:22;;;;;;;3.03;2.92;;;;;;;2.19;100.00;100081.16;6112500;23;20036;-64
2022/04/09 02:02:48;;;;;;;2.80;2.70;;;;;;;2.42;100.00;100117.66;6113192;23;20532;-64
2022/04/09 02:05:15;;;;;;;2.80;2.70;;;;;;;2.38;100.00;100128.09;6100923;23;20014;-63
2022/04/09 02:07:43;;;;;;;3.00;2.90;;;;;;;2.45;100.00;100121.03;6087064;23;20017;-63
2022/04/09 02:10:10;;;;;;;2.78;2.67;;;;;;;2.46;100.00;100125.28;6117767;23;20521;-64
2022/04/09 02:12:37;;;;;;;5.07;4.80;;;;;;;2.49;100.00;100129.56;6116121;23;20036;-64
2022/04/09 02:15:05;;;;;;;2.80;2.70;;;;;;;2.43;100.00;100129.72;6106960;23;20467;-62
2022/04/09 02:17:31;;;;;;;5.03;4.82;;;;;;;2.43;100.00;100140.94;6102519;23;20021;-64
2022/04/09 02:19:58;;;;;;;2.80;2.70;;;;;;;2.19;100.00;100103.63;6129334;23;20076;-63
2022/04/09 02:22:24;;;;;;;3.60;3.47;;;;;;;2.36;100.00;100141.97;6120870;23;20041;-63
2022/04/09 02:24:51;;;;;;;2.60;2.50;;;;;;;1.81;100.00;100035.63;6119921;23;20025;-63
2022/04/09 02:27:17;;;;;;;2.80;2.70;;;;;;;2.56;100.00;100154.38;6116805;23;20088;-62
2022/04/09 02:29:45;;;;;;;2.78;2.67;;;;;;;2.54;100.00;100153.56;6108955;23;20024;-63
2022/04/09 02:32:12;;;;;;;2.90;2.80;;;;;;;2.29;100.00;100125.78;6115002;23;20734;-64
2022/04/09 02:34:38;;;;;;;4.45;4.25;;;;;;;2.54;100.00;100161.34;6081657;23;20030;-63
2022/04/09 02:37:07;;;;;;;3.03;2.92;;;;;;;2.47;100.00;100170.19;6118463;23;20025;-64
2022/04/09 02:39:34;;;;;;;5.00;4.80;;;;;;;2.40;100.00;100162.56;6100412;23;20084;-63
2022/04/09 02:42:01;;;;;;;2.88;2.78;;;;;;;2.55;100.00;100188.97;6127641;23;20082;-64
2022/04/09 02:44:27;;;;;;;4.22;4.05;;;;;;;2.43;100.00;100171.16;6084917;23;20020;-64
2022/04/09 02:46:53;;;;;;;2.72;2.63;;;;;;;2.30;100.00;100157.69;6115244;23;20112;-63
2022/04/09 02:49:20;;;;;;;2.80;2.70;;;;;;;2.09;100.00;100118.53;6099334;23;20014;-62
2022/04/09 02:51:46;;;;;;;2.95;2.85;;;;;;;2.58;100.00;100194.03;6117998;23;20020;-63
2022/04/09 02:54:16;;;;;;;2.80;2.70;;;;;;;2.71;99.82;100202.34;6112960;23;20022;-63
2022/04/09 02:56:46;;;;;;;3.30;3.20;;;;;;;2.20;99.24;100133.78;6088404;23;20035;-63
2022/04/09 02:59:13;;;;;;;3.25;3.15;;;;;;;2.78;99.66;100206.44;6125443;23;20025;-64
2022/04/09 03:01:42;;;;;;;3.50;3.40;;;;;;;2.64;98.74;100187.84;6123091;23;20041;-64
2022/04/09 03:04:08;;;;;;;2.70;2.60;;;;;;;2.84;98.62;100219.22;6096906;23;20067;-64
2022/04/09 03:06:35;;;;;;;4.75;4.55;;;;;;;2.88;98.29;100223.44;6110422;23;20045;-63
2022/04/09 03:09:02;;;;;;;3.00;2.90;;;;;;;2.44;98.31;100165.94;6121428;23;20462;-63
2022/04/09 03:11:28;;;;;;;4.32;4.13;;;;;;;2.87;97.99;100236.47;6116967;23;20501;-64
2022/04/09 03:13:55;;;;;;;2.83;2.72;;;;;;;2.69;98.69;100211.91;6103523;23;20025;-64
2022/04/09 03:16:21;;;;;;;2.80;2.70;;;;;;;2.68;97.97;100221.38;6118631;23;20096;-62
2022/04/09 03:18:48;;;;;;;2.92;2.83;;;;;;;2.85;98.44;100241.69;6117969;23;20380;-63
2022/04/09 03:21:15;;;;;;;2.80;2.70;;;;;;;2.84;97.66;100226.16;6128688;23;20021;-64
2022/04/09 03:23:41;;;;;;;2.80;2.70;;;;;;;2.93;96.74;100244.91;6118145;23;20398;-64
2022/04/09 03:26:08;;;;;;;2.97;2.88;;;;;;;3.02;97.21;100263.69;6114808;23;20013;-64
2022/04/09 03:28:39;;;;;;;4.43;4.22;;;;;;;3.02;97.48;100256.75;6114267;23;20375;-64
2022/04/09 03:31:08;;;;;;;3.92;3.78;;;;;;;3.03;96.85;100257.59;6098165;23;20126;-63
2022/04/09 03:33:34;;;;;;;5.00;4.80;;;;;;;3.05;97.01;100264.44;6110440;23;20021;-64
2022/04/09 03:36:01;;;;;;;2.90;2.80;;;;;;;2.71;96.61;100198.00;6128243;23;20112;-65
2022/04/09 03:38:28;;;;;;;4.50;4.30;;;;;;;3.10;95.86;100267.75;6119637;23;20010;-64
2022/04/09 03:40:54;;;;;;;2.90;2.80;;;;;;;3.15;96.64;100270.22;6121488;23;20032;-65
2022/04/09 03:43:20;;;;;;;2.90;2.80;;;;;;;3.06;96.16;100273.06;6109564;23;20050;-64
2022/04/09 03:45:47;;;;;;;2.60;2.50;;;;;;;3.07;96.99;100272.19;6108217;23;20014;-64
2022/04/09 03:48:13;;;;;;;2.78;2.67;;;;;;;2.94;96.67;100271.66;6117110;23;20071;-63
2022/04/09 03:50:40;;;;;;;3.42;3.33;;;;;;;3.17;96.55;100287.44;6103396;23;20059;-63
2022/04/09 03:53:06;;;;;;;2.88;2.78;;;;;;;2.89;96.31;100247.63;6120291;23;20028;-64
2022/04/09 03:55:33;;;;;;;4.75;4.55;;;;;;;2.57;96.18;100190.59;6091190;23;20045;-64
2022/04/09 03:57:59;;;;;;;2.88;2.78;;;;;;;3.13;95.90;100291.00;6115597;23;20123;-62
2022/04/09 04:00:25;;;;;;;3.83;3.67;;;;;;;3.18;96.49;100293.47;6109945;23;20013;-63
2022/04/09 04:02:52;;;;;;;2.80;2.70;;;;;;;3.11;95.65;100292.78;6116737;23;20084;-64
2022/04/09 04:05:18;;;;;;;2.97;2.88;;;;;;;3.17;95.98;100297.81;6117063;23;20021;-64
2022/04/09 04:07:46;;;;;;;2.80;2.70;;;;;;;3.22;96.21;100313.22;6111639;23;20033;-63
2022/04/09 04:10:13;;;;;;;2.90;2.80;;;;;;;2.97;95.48;100269.00;6107889;23;20009;-65
2022/04/09 04:12:43;;;;;;;4.30;4.10;;;;;;;3.04;94.53;100248.94;6124080;23;20084;-63
2022/04/09 04:15:10;;;;;;;2.72;2.63;;;;;;;3.13;94.35;100269.41;6098520;23;20014;-64
2022/04/09 04:17:42;;;;;;;4.68;4.47;;;;;;;3.35;93.73;100305.97;6096303;23;20238;-65
2022/04/09 04:20:11;;;;;;;2.90;2.80;;;;;;;3.28;94.40;100297.47;6091919;23;20224;-63
2022/04/09 04:22:38;;;;;;;4.85;4.65;;;;;;;3.42;93.82;100324.78;6108664;23;20049;-64
2022/04/09 04:25:05;;;;;;;2.80;2.70;;;;;;;3.08;94.26;100279.91;6125789;23;20029;-65
2022/04/09 04:27:32;;;;;;;4.47;4.28;;;;;;;3.10;94.29;100304.03;6106358;23;20060;-65
2022/04/09 04:29:59;;;;;;;2.90;2.80;;;;;;;3.31;94.17;100341.50;6123768;23;20052;-65
2022/04/09 04:32:26;;;;;;;3.88;3.72;;;;;;;3.28;94.10;100349.34;6108439;23;20022;-64
2022/04/09 04:34:53;;;;;;;3.30;3.20;;;;;;;3.18;94.52;100343.56;6116402;23;20016;-65
2022/04/09 04:37:19;;;;;;;3.08;2.97;;;;;;;3.15;95.08;100348.84;6126274;23;20275;-63
2022/04/09 04:39:46;;;;;;;2.75;2.65;;;;;;;3.11;95.60;100360.19;6086487;23;20014;-64
2022/04/09 04:42:12;;;;;;;2.88;2.78;;;;;;;3.09;95.57;100361.97;6104254;23;20016;-64
2022/04/09 04:44:39;;;;;;;4.07;3.88;;;;;;;3.05;94.64;100364.69;6090015;23;20117;-65
2022/04/09 04:47:05;;;;;;;2.97;2.88;;;;;;;3.17;94.35;100380.78;6110283;23;20092;-63
2022/04/09 04:49:32;;;;;;;4.63;4.43;;;;;;;3.18;93.99;100385.06;6115544;23;20029;-63
2022/04/09 04:51:58;;;;;;;5.80;3.00;;;;;;;3.05;94.42;100370.75;6109455;23;20023;-63
2022/04/09 04:54:25;;;;;;;4.32;4.15;;;;;;;2.74;95.17;100324.88;6107903;23;20027;-64
2022/04/09 04:56:51;;;;;;;2.95;2.85;;;;;;;3.04;94.81;100386.31;6096859;23;20531;-63
2022/04/09 04:59:18;;;;;;;2.90;2.80;;;;;;;2.93;94.90;100381.44;6105349;23;20017;-64
2022/04/09 05:01:44;;;;;;;3.10;3.00;;;;;;;1.85;94.94;100208.00;6111651;23;20438;-64
2022/04/09 05:04:10;;;;;;;2.90;2.80;;;;;;;2.94;95.49;100390.88;6103766;23;20024;-65
2022/04/09 05:06:37;;;;;;;4.95;4.75;;;;;;;2.91;95.01;100385.81;6109683;23;20033;-65
2022/04/09 05:09:03;;;;;;;3.00;2.90;;;;;;;2.96;94.59;100379.59;6111853;23;20050;-64
2022/04/09 05:11:30;;;;;;;4.55;4.35;;;;;;;3.16;93.93;100410.16;6109845;23;20458;-64
2022/04/09 05:13:56;;;;;;;3.00;2.90;;;;;;;2.85;94.53;100358.28;6117190;23;20257;-65
2022/04/09 05:16:27;;;;;;;4.38;4.18;;;;;;;3.00;93.84;100403.69;6094108;23;20014;-65
2022/04/09 05:18:53;;;;;;;3.10;3.00;;;;;;;3.15;93.91;100439.59;6121313;23;20017;-64
2022/04/09 05:21:20;;;;;;;3.10;3.00;;;;;;;3.14;93.96;100443.06;6117293;23;20020;-63
2022/04/09 05:23:46;;;;;;;3.38;3.22;;;;;;;3.15;93.92;100447.38;6096979;23;20410;-65
2022/04/09 05:26:12;;;;;;;3.00;2.90;;;;;;;3.18;93.79;100447.28;6111655;23;20017;-64
2022/04/09 05:28:39;;;;;;;4.03;3.83;;;;;;;3.15;93.41;100431.81;6112330;23;20144;-64
2022/04/09 05:31:06;;;;;;;2.85;2.75;;;;;;;3.28;93.92;100450.50;6107361;23;20092;-64
2022/04/09 05:33:33;;;;;;;4.57;4.38;;;;;;;3.26;93.38;100454.03;6105133;23;20033;-65
2022/04/09 05:35:59;;;;;;;2.97;2.88;;;;;;;3.32;93.84;100459.06;6090111;23;20041;-64
2022/04/09 05:38:26;;;;;;;4.50;4.30;;;;;;;3.36;93.74;100455.50;6111382;23;20028;-65
2022/04/09 05:40:53;;;;;;;3.10;3.00;;;;;;;3.16;93.57;100438.69;6096138;23;20349;-65
2022/04/09 05:43:20;;;;;;;2.90;2.80;;;;;;;3.10;94.62;100436.25;6110138;23;20031;-70
2022/04/09 05:45:47;;;;;;;2.90;2.80;;;;;;;3.09;94.03;100444.94;6116058;23;20025;-68
2022/04/09 05:48:13;;;;;;;3.00;2.90;;;;;;;3.04;94.12;100444.19;6097452;23;20092;-70
2022/04/09 05:50:39;;;;;;;3.58;3.47;;;;;;;3.11;94.04;100447.50;6108354;23;21602;-69
2022/04/09 05:53:06;;;;;;;3.00;2.90;;;;;;;3.30;94.30;100484.19;6116141;23;20104;-70
2022/04/09 05:55:32;;;;;;;5.03;4.82;;;;;;;3.11;94.14;100458.72;6107504;23;20033;-69
2022/04/09 05:57:59;;;;;;;3.10;3.00;;;;;;;3.09;94.14;100475.22;6102841;23;20014;-69
2022/04/09 06:00:26;;;;;;;4.28;4.07;;;;;;;3.22;93.47;100463.63;6085416;23;20017;-69
2022/04/09 06:02:52;;;;;;;3.40;3.20;;;;;;;3.29;92.44;100462.59;6114618;23;20010;-67
2022/04/09 06:05:20;;;;;;;2.90;2.80;;;;;;;3.51;92.25;100509.56;6109155;23;20189;-70
2022/04/09 06:07:46;;;;;;;3.08;2.97;;;;;;;3.70;91.76;100516.88;6083115;23;20533;-70
2022/04/09 06:10:14;;;;;;;3.10;3.00;;;;;;;2.55;90.44;100313.28;6112465;23;20084;-67
2022/04/09 06:12:41;;;;;;;3.50;3.40;;;;;;;3.83;90.13;100519.97;6111486;23;20009;-68
2022/04/09 06:15:08;;;;;;;2.88;2.78;;;;;;;3.58;89.91;100503.31;6089603;23;20041;-69
2022/04/09 06:17:36;;;;;;;4.07;3.88;;;;;;;3.76;89.82;100525.31;6113420;23;20009;-68
2022/04/09 06:20:04;;;;;;;3.13;3.03;;;;;;;3.88;89.33;100521.56;6108550;23;20076;-68
2022/04/09 06:22:36;;;;;;;5.18;4.97;;;;;;;3.94;90.43;100526.56;6079328;23;20618;-69
2022/04/09 06:25:02;;;;;;;3.00;2.90;;;;;;;4.08;89.50;100530.53;6108735;23;20021;-69
2022/04/09 06:27:29;;;;;;;4.75;4.55;;;;;;;4.22;88.18;100522.38;6098343;23;20553;-68
2022/04/09 06:29:55;;;;;;;3.20;3.10;;;;;;;4.23;88.02;100519.72;6101599;23;20088;-68
2022/04/09 06:32:21;;;;;;;3.67;3.55;;;;;;;3.99;87.42;100488.38;6105150;23;20051;-71
2022/04/09 06:34:48;;;;;;;3.10;3.00;;;;;;;4.28;87.02;100517.84;6100721;23;20024;-69
2022/04/09 06:37:14;;;;;;;3.40;3.30;;;;;;;4.38;86.96;100554.78;6100867;23;20013;-68
2022/04/09 06:39:41;;;;;;;3.30;3.20;;;;;;;4.22;87.04;100517.16;6095791;23;20010;-71
2022/04/09 06:42:07;;;;;;;3.15;3.05;;;;;;;4.49;86.11;100554.47;6090108;23;20028;-65
2022/04/09 06:44:34;;;;;;;5.07;4.88;;;;;;;4.44;86.58;100554.63;6111216;23;20020;-66
2022/04/09 06:47:00;;;;;;;3.35;3.25;;;;;;;4.35;86.56;100495.13;6106914;23;20065;-65
2022/04/09 06:49:26;;;;;;;4.03;3.83;;;;;;;4.85;83.98;100564.66;6114938;23;20126;-66
2022/04/09 06:51:53;;;;;;;3.47;3.38;;;;;;;4.72;85.05;100517.41;6107693;23;20024;-65
2022/04/09 06:54:20;;;;;;;3.17;3.08;;;;;;;5.19;82.97;100572.25;6105397;23;20113;-66
2022/04/09 06:56:47;;;;;;;3.15;3.05;;;;;;;5.17;82.09;100580.13;6106322;23;20893;-66
2022/04/09 06:59:13;;;;;;;3.22;3.13;;;;;;;5.03;82.66;100547.63;6116970;23;20230;-66
2022/04/09 07:01:39;;;;;;;4.85;4.65;;;;;;;5.34;81.56;100571.78;6108333;23;20029;-66
2022/04/09 07:04:06;;;;;;;3.10;3.00;;;;;;;5.14;82.22;100593.22;6105490;23;20086;-66
2022/04/09 07:06:33;;;;;;;4.95;4.75;;;;;;;5.08;82.35;100572.59;6071699;23;20034;-64
2022/04/09 07:08:59;;;;;;;3.25;3.15;;;;;;;4.46;82.78;100484.41;6109174;23;20022;-70
2022/04/09 07:11:26;;;;;;;5.18;4.97;;;;;;;5.45;81.06;100601.81;6113616;23;20022;-66
2022/04/09 07:13:53;;;;;;;3.63;3.53;;;;;;;5.63;80.30;100595.97;6098940;23;20047;-66
2022/04/09 07:16:20;;;;;;;3.50;3.40;;;;;;;5.14;80.44;100522.16;6111504;23;20025;-66
2022/04/09 07:18:46;;;;;;;3.38;3.28;;;;;;;5.59;80.33;100600.47;6109527;23;20006;-66
2022/04/09 07:21:13;;;;;;;3.25;3.15;;;;;;;5.74;79.81;100622.53;6122243;23;20053;-66
2022/04/09 07:23:39;;;;;;;4.25;4.05;;;;;;;5.51;80.22;100593.78;6074541;23;20100;-68
2022/04/09 07:26:06;;;;;;;3.40;3.30;;;;;;;5.55;79.61;100605.81;6113204;23;20410;-70
2022/04/09 07:28:32;;;;;;;5.80;5.50;;;;;;;5.30;80.55;100629.19;6092354;23;20388;-65
2022/04/09 07:30:59;;;;;;;3.30;3.20;;;;;;;5.41;80.93;100629.66;6110862;23;20052;-67
2022/04/09 07:33:25;;;;;;;4.78;4.57;;;;;;;5.59;80.78;100629.09;6100649;23;20343;-64
2022/04/09 07:35:55;;;;;;;3.33;3.22;;;;;;;5.80;79.79;100630.13;6096551;23;20025;-64
2022/04/09 07:38:21;;;;;;;3.53;3.42;;;;;;;5.86;79.62;100610.84;6097229;23;20018;-64
2022/04/09 07:40:48;;;;;;;3.33;3.22;;;;;;;6.28;78.55;100640.72;6104542;23;20028;-66
2022/04/09 07:43:15;;;;;;;3.85;3.65;;;;;;;6.22;77.06;100636.56;6115816;23;20009;-63
2022/04/09 07:45:41;;;;;;;4.50;4.30;;;;;;;6.69;77.04;100628.75;6107270;23;20386;-64
2022/04/09 07:48:11;;;;;;;3.30;3.20;;;;;;;5.76;76.55;100450.63;6113042;23;20443;-71
2022/04/09 07:50:38;;;;;;;5.05;4.85;;;;;;;6.23;75.58;100616.56;6124536;23;20030;-66
2022/04/09 07:53:05;;;;;;;3.40;3.30;;;;;;;6.64;74.89;100637.69;6111041;23;20025;-64
2022/04/09 07:55:31;;;;;;;3.60;3.50;;;;;;;6.71;74.48;100653.03;6113711;23;20049;-65
2022/04/09 07:57:58;;;;;;;3.50;3.40;;;;;;;6.21;77.28;100614.00;6131663;23;20028;-70
2022/04/09 08:00:30;;;;;;;5.43;5.22;;;;;;;6.44;74.42;100662.72;6128594;23;20026;-64
2022/04/09 08:02:57;;;;;;;3.55;3.45;;;;;;;6.22;74.96;100639.16;6095441;23;20073;-66
2022/04/09 08:05:24;;;;;;;4.78;4.60;;;;;;;6.46;74.96;100647.03;6105083;23;20114;-65
2022/04/09 08:07:50;;;;;;;3.70;3.60;;;;;;;6.42;74.18;100671.50;6099264;23;20018;-65
2022/04/09 08:10:18;;;;;;;3.50;3.40;;;;;;;6.49;74.80;100676.41;6109928;23;20171;-64
2022/04/09 08:12:49;;;;;;;3.78;3.65;;;;;;;6.69;75.30;100664.44;6078222;23;20026;-65
2022/04/09 08:15:18;;;;;;;3.50;3.40;;;;;;;7.09;73.23;100663.78;6110008;23;20078;-67
2022/04/09 08:17:47;;;;;;;3.63;3.53;;;;;;;7.26;71.91;100670.13;6075008;23;20277;-65
2022/04/09 08:20:14;;;;;;;3.60;3.50;;;;;;;6.43;71.24;100503.75;6115777;23;20016;-65
2022/04/09 08:22:41;;;;;;;4.30;4.10;;;;;;;7.56;71.63;100679.38;6106259;23;20101;-65
2022/04/09 08:25:10;;;;;;;3.70;3.60;;;;;;;6.86;71.86;100642.97;6105632;23;20025;-64
2022/04/09 08:27:38;;;;;;;7.18;5.13;;;;;;;7.07;73.22;100675.19;6108130;23;20269;-72
2022/04/09 08:30:06;;;;;;;3.60;3.50;;;;;;;7.04;73.61;100664.91;6116624;23;20084;-70
2022/04/09 08:32:33;;;;;;;5.55;5.35;;;;;;;7.10;72.23;100643.78;6096884;23;20090;-66
2022/04/09 08:35:00;;;;;;;4.20;4.00;;;;;;;7.58;71.00;100674.94;6098275;23;20422;-68
2022/04/09 08:37:26;;;;;;;5.30;5.10;;;;;;;7.64;71.09;100671.22;6112381;23;20395;-68
2022/04/09 08:39:54;;;;;;;10.43;4.03;;;;;;;7.35;69.84;100647.09;6096422;23;20104;-70
2022/04/09 08:42:21;;;;;;;4.03;3.83;;;;;;;7.12;71.99;100626.31;6077105;23;20042;-71
2022/04/09 08:44:49;;;;;;;4.00;3.83;;;;;;;7.13;71.01;100677.56;6115590;23;20017;-72
2022/04/09 08:47:15;;;;;;;3.70;3.60;;;;;;;7.36;70.28;100674.94;6100412;23;20088;-66
2022/04/09 08:49:46;;;;;;;4.15;3.95;;;;;;;7.59;70.47;100678.38;6099533;23;20001;-66
2022/04/09 08:52:15;;;;;;;4.00;3.83;;;;;;;7.38;68.72;100641.78;6106886;23;20036;-66
2022/04/09 08:54:42;;;;;;;4.70;4.50;;;;;;;7.24;70.35;100669.34;6107884;23;20013;-69
2022/04/09 08:57:08;;;;;;;3.97;3.78;;;;;;;7.24;68.94;100677.19;6124830;23;20031;-70
2022/04/09 08:59:35;;;;;;;5.35;5.15;;;;;;;7.28;68.41;100687.44;6107184;23;20177;-72
2022/04/09 09:02:03;;;;;;;3.70;3.60;;;;;;;7.26;68.52;100657.94;6085629;23;20106;-69
2022/04/09 09:04:30;;;;;;;5.25;5.05;;;;;;;7.31;68.46;100696.91;6082753;23;20014;-67
2022/04/09 09:07:16;;;;;;;3.70;3.60;;;;;;;7.42;67.87;100706.91;6116583;23;20083;-71
2022/04/09 09:09:42;;;;;;;3.67;3.58;;;;;;;7.22;66.80;100645.03;6105166;23;20060;-71
2022/04/09 09:12:10;;;;;;;3.55;3.45;;;;;;;7.30;65.15;100701.28;6085802;23;20494;-71
2022/04/09 09:14:36;;;;;;;5.47;5.28;;;;;;;7.03;65.07;100713.59;6106122;23;20021;-65
2022/04/09 09:17:03;;;;;;;4.13;3.92;;;;;;;6.78;67.04;100701.47;6092900;23;20026;-68
2022/04/09 09:19:45;;;;;;;4.95;4.75;;;;;;;6.38;64.73;100720.28;6106006;23;20045;-68
2022/04/09 09:22:12;;;;;;;3.70;3.60;;;;;;;6.09;69.10;100714.28;6114270;23;20089;-66
2022/04/09 09:24:39;;;;;;;4.70;4.50;;;;;;;5.81;71.31;100740.34;6113678;23;20424;-72
2022/04/09 09:27:06;;;;;;;3.53;3.42;;;;;;;5.64;77.89;100743.50;6118472;23;20256;-67
2022/04/09 09:29:33;;;;;;;4.88;4.68;;;;;;;5.23;82.94;100763.78;6110383;23;20017;-66
2022/04/09 09:32:02;;;;;;;3.65;3.53;;;;;;;4.71;86.00;100749.66;6100562;23;20048;-63
2022/04/09 09:34:29;;;;;;;4.55;4.35;;;;;;;4.50;86.77;100753.69;6089783;23;20013;-69
2022/04/09 09:36:55;;;;;;;3.50;3.40;;;;;;;4.17;86.25;100718.16;6109189;23;20033;-64
2022/04/09 09:39:25;;;;;;;3.55;3.42;;;;;;;4.20;86.73;100720.66;6106443;23;20084;-63
2022/04/09 09:41:56;;;;;;;3.30;3.20;;;;;;;4.39;86.11;100756.56;6100050;23;20874;-71
2022/04/09 09:44:31;;;;;;;3.75;3.60;;;;;;;4.33;87.43;100712.53;6098230;23;20013;-64
2022/04/09 09:47:07;;;;;;;3.33;3.22;;;;;;;4.85;87.65;100738.88;6116043;23;20005;-68
2022/04/09 09:49:53;;;;;;;3.30;3.20;;;;;;;4.77;86.49;100700.97;6123233;23;20280;-66
2022/04/09 09:52:28;;;;;;;3.47;3.38;;;;;;;5.42;85.87;100752.88;6106652;23;20033;-64
2022/04/09 09:54:55;;;;;;;3.50;3.40;;;;;;;5.97;84.37;100744.22;6102297;23;20035;-68
2022/04/09 09:57:29;;;;;;;3.58;3.47;;;;;;;6.41;80.57;100735.81;6111421;23;20073;-67
2022/04/09 09:59:58;;;;;;;3.55;3.45;;;;;;;6.86;80.55;100734.25;6097322;23;20021;-67
2022/04/09 10:02:30;;;;;;;4.93;4.72;;;;;;;7.29;76.50;100733.50;6115784;23;20602;-67
2022/04/09 10:04:56;;;;;;;3.70;3.60;;;;;;;7.37;70.13;100702.72;6112579;23;20016;-67
2022/04/09 10:07:24;;;;;;;3.72;3.60;;;;;;;7.63;69.29;100697.41;6114152;23;20009;-67
2022/04/09 10:09:53;;;;;;;3.63;3.53;;;;;;;8.19;65.74;100722.97;6111878;23;20018;-66
2022/04/09 10:12:21;;;;;;;5.88;5.47;;;;;;;8.82;65.32;100733.38;6092451;23;20010;-67
2022/04/09 10:14:54;;;;;;;3.80;3.70;;;;;;;8.74;62.05;100735.47;6104546;23;20044;-66
2022/04/09 10:17:22;;;;;;;3.60;3.50;;;;;;;8.36;60.69;100733.56;6092847;23;20094;-70
2022/04/09 10:19:56;;;;;;;3.70;3.60;;;;;;;8.55;61.47;100698.81;6115602;23;20025;-69
2022/04/09 10:22:53;;;;;;;4.35;4.20;;;;;;;8.41;62.25;100729.91;6097228;23;20013;-70
2022/04/09 10:25:20;;;;;;;3.63;3.53;;;;;;;8.19;61.03;100722.97;6066767;23;20032;-68
2022/04/09 10:27:53;;;;;;;3.90;3.78;;;;;;;8.50;59.98;100724.31;6107221;23;20029;-68
2022/04/09 10:30:24;;;;;;;;;;;;;;;8.94;59.30;100732.84;6110340;23;20514;-69
2022/04/09 10:32:53;;;;;;;3.80;3.70;;;;;;;9.37;58.67;100720.38;6107049;23;20373;-70
2022/04/09 10:35:24;;;;;;;3.80;3.70;;;;;;;9.82;54.28;100717.41;6101498;23;20024;-69
2022/04/09 10:38:09;;;;;;;3.80;3.70;;;;;;;9.95;55.58;100714.13;6112364;23;20029;-69
2022/04/09 10:40:45;;;;;;;5.20;5.00;;;;;;;9.81;55.96;100721.81;6082655;23;20167;-70
2022/04/09 10:43:24;;;;;;;4.20;4.00;;;;;;;9.43;56.35;100723.66;6103221;23;20017;-70
2022/04/09 10:46:06;;;;;;;3.75;3.65;;;;;;;9.08;56.23;100739.19;6117427;23;20006;-70
2022/04/09 10:48:37;;;;;;;5.90;5.60;;;;;;;8.71;56.10;100746.09;6078824;23;20030;-70
2022/04/09 10:51:08;;;;;;;3.80;3.70;;;;;;;8.57;56.92;100739.66;6110373;23;20059;-70
2022/04/09 10:53:37;;;;;;;3.97;3.78;;;;;;;8.76;58.16;100760.66;6123535;23;20076;-69
2022/04/09 10:56:21;;;;;;;3.80;3.70;;;;;;;9.18;59.65;100770.16;6114006;23;20118;-70
2022/04/09 10:59:13;;;;;;;3.70;3.60;;;;;;;7.79;63.26;100716.75;6107349;23;20009;-69
2022/04/09 11:01:49;;;;;;;5.10;4.90;;;;;;;8.09;63.82;100760.84;6104801;23;20053;-69
2022/04/09 11:04:37;;;;;;;3.78;3.67;;;;;;;7.79;66.04;100771.63;6105962;23;20668;-71
2022/04/09 11:07:23;;;;;;;3.60;3.50;;;;;;;6.79;67.02;100765.78;6097183;23;20085;-70
2022/04/09 11:09:56;;;;;;;4.03;3.83;;;;;;;6.58;67.90;100787.38;6105795;23;20045;-70
2022/04/09 11:12:37;;;;;;;;;;;;;;;6.39;69.54;100772.38;6064351;23;20268;-69
2022/04/09 11:15:08;;;;;;;3.78;3.67;;;;;;;6.36;69.86;100764.63;6087117;23;19926;-69
2022/04/09 11:17:39;;;;;;;5.53;5.32;;;;;;;6.46;70.55;100764.34;6103661;23;20018;-70
2022/04/09 11:20:11;;;;;;;3.80;3.60;;;;;;;6.55;70.38;100767.47;6104138;23;20022;-70
2022/04/09 11:22:40;;;;;;;5.47;5.28;;;;;;;6.51;71.23;100750.22;6113743;23;20508;-70
2022/04/09 11:25:20;;;;;;;3.63;3.53;;;;;;;6.46;70.13;100748.69;6123775;23;20028;-69
2022/04/09 11:27:48;;;;;;;3.60;3.50;;;;;;;6.38;71.69;100768.03;6117907;23;20767;-70
2022/04/09 11:30:15;;;;;;;4.00;3.80;;;;;;;6.34;71.01;100765.59;6102050;23;20504;-70
2022/04/09 11:32:42;;;;;;;3.80;3.60;;;;;;;6.15;72.40;100742.78;6106634;23;20024;-70
2022/04/09 11:35:12;;;;;;;3.70;3.60;;;;;;;6.70;72.80;100776.53;6109884;23;20022;-70
2022/04/09 11:37:41;;;;;;;5.28;4.90;;;;;;;7.07;71.50;100772.59;6099499;23;20025;-70